sensor_id;sensor_type;location;lat;lon;timestamp;temperature;humidity
6556;DHT22;3311;48.32423000;14.29074500;2022-07-06T05:39:20;24.20;69.20
6556;DHT22;3311;48.32423000;14.29074500;2022-07-06T05:41:48;24.10;69.40
6556;DHT22;3311;48.32423000;14.29074500;2022-07-06T05:44:15;24.00;69.50
6556;DHT22;3311;48.32423000;14.29074500;2022-07-06T05:46:42;24.00;69.50
6556;DHT22;3311;48.32423000;14.29074500;2022-07-06T05:49:10;24.00;69.50
6556;DHT22;3311;48.32423000;14.29074500;2022-07-06T05:51:55;23.90;69.60
6556;DHT22;3311;48.32423000;14.29074500;2022-07-06T05:54:23;23.90;69.50
6556;DHT22;3311;48.32423000;14.29074500;2022-07-06T05:56:51;23.80;69.20
6556;DHT22;3311;48.32423000;14.29074500;2022-07-06T05:59:18;23.80;68.30
6556;DHT22;3311;48.32423000;14.29074500;2022-07-06T06:01:45;23.90;66.80
6556;DHT22;3311;48.32423000;14.29074500;2022-07-06T06:04:12;24.00;66.20
6556;DHT22;3311;48.32423000;14.29074500;2022-07-06T06:06:39;24.00;65.20
6556;DHT22;3311;48.32423000;14.29074500;2022-07-06T06:09:06;24.20;64.80
6556;DHT22;3311;48.32423000;14.29074500;2022-07-06T06:11:35;24.30;64.70
6556;DHT22;3311;48.32423000;14.29074500;2022-07-06T06:14:02;24.40;64.40
6556;DHT22;3311;48.32423000;14.29074500;2022-07-06T06:16:30;24.50;64.30
6556;DHT22;3311;48.32423000;14.29074500;2022-07-06T06:18:57;24.50;64.30
6556;DHT22;3311;48.32423000;14.29074500;2022-07-06T06:21:25;24.60;64.40
6556;DHT22;3311;48.32423000;14.29074500;2022-07-06T06:23:52;24.60;64.40
6556;DHT22;3311;48.32423000;14.29074500;2022-07-06T06:26:19;24.70;64.30
6556;DHT22;3311;48.32423000;14.29074500;2022-07-06T06:28:48;24.80;64.30
6556;DHT22;3311;48.32423000;14.29074500;2022-07-06T06:31:15;24.80;64.30
6556;DHT22;3311;48.32423000;14.29074500;2022-07-06T06:33:42;24.90;64.20
6556;DHT22;3311;48.32423000;14.29074500;2022-07-06T06:36:09;24.90;64.20
6556;DHT22;3311;48.32423000;14.29074500;2022-07-06T06:38:37;24.90;64.10
6556;DHT22;3311;48.32423000;14.29074500;2022-07-06T06:41:04;24.90;64.00
6556;DHT22;3311;48.32423000;14.29074500;2022-07-06T06:43:31;25.00;64.00
6556;DHT22;3311;48.32423000;14.29074500;2022-07-06T06:46:00;25.00;64.00
6556;DHT22;3311;48.32423000;14.29074500;2022-07-06T06:48:27;25.00;63.80
6556;DHT22;3311;48.32423000;14.29074500;2022-07-06T06:50:54;25.00;63.80
6556;DHT22;3311;48.32423000;14.29074500;2022-07-06T06:53:21;25.10;63.80
6556;DHT22;3311;48.32423000;14.29074500;2022-07-06T06:55:49;25.10;63.70
6556;DHT22;3311;48.32423000;14.29074500;2022-07-06T06:58:16;25.20;63.80
6556;DHT22;3311;48.32423000;14.29074500;2022-07-06T07:00:43;25.20;63.80
6556;DHT22;3311;48.32423000;14.29074500;2022-07-06T07:03:12;25.20;63.70
6556;DHT22;3311;48.32423000;14.29074500;2022-07-06T07:05:39;25.20;63.70
6556;DHT22;3311;48.32423000;14.29074500;2022-07-06T07:08:06;25.20;63.50
6556;DHT22;3311;48.32423000;14.29074500;2022-07-06T07:10:34;25.30;63.60
6556;DHT22;3311;48.32423000;14.29074500;2022-07-06T07:13:01;25.30;63.60
6556;DHT22;3311;48.32423000;14.29074500;2022-07-06T07:15:28;25.30;63.50
6556;DHT22;3311;48.32423000;14.29074500;2022-07-06T07:17:55;25.30;63.50
6556;DHT22;3311;48.32423000;14.29074500;2022-07-06T07:20:24;25.40;63.60
6556;DHT22;3311;48.32423000;14.29074500;2022-07-06T07:22:52;25.40;63.50
6556;DHT22;3311;48.32423000;14.29074500;2022-07-06T07:25:19;25.40;63.50
6556;DHT22;3311;48.32423000;14.29074500;2022-07-06T07:27:46;25.50;63.20
6556;DHT22;3311;48.32423000;14.29074500;2022-07-06T07:30:13;25.50;63.40
6556;DHT22;3311;48.32423000;14.29074500;2022-07-06T07:32:41;25.50;63.50
6556;DHT22;3311;48.32423000;14.29074500;2022-07-06T07:35:08;25.50;63.40
6556;DHT22;3311;48.32423000;14.29074500;2022-07-06T07:37:37;25.50;63.30
6556;DHT22;3311;48.32423000;14.29074500;2022-07-06T07:40:06;25.50;63.20
6556;DHT22;3311;48.32423000;14.29074500;2022-07-06T07:42:34;25.60;63.30
6556;DHT22;3311;48.32423000;14.29074500;2022-07-06T07:45:05;25.50;63.30
6556;DHT22;3311;48.32423000;14.29074500;2022-07-06T07:47:33;25.50;63.20
6556;DHT22;3311;48.32423000;14.29074500;2022-07-06T07:50:00;25.60;63.20
6556;DHT22;3311;48.32423000;14.29074500;2022-07-06T07:52:27;25.70;63.10
6556;DHT22;3311;48.32423000;14.29074500;2022-07-06T07:54:56;25.80;62.80
6556;DHT22;3311;48.32423000;14.29074500;2022-07-06T07:57:23;25.80;62.90
6556;DHT22;3311;48.32423000;14.29074500;2022-07-06T07:59:50;25.90;62.80
6556;DHT22;3311;48.32423000;14.29074500;2022-07-06T08:02:17;25.90;62.90
6556;DHT22;3311;48.32423000;14.29074500;2022-07-06T08:04:44;25.70;63.00
6556;DHT22;3311;48.32423000;14.29074500;2022-07-06T08:07:12;25.80;63.30
6556;DHT22;3311;48.32423000;14.29074500;2022-07-06T08:09:39;25.80;63.00
6556;DHT22;3311;48.32423000;14.29074500;2022-07-06T08:12:10;25.70;63.30
6556;DHT22;3311;48.32423000;14.29074500;2022-07-06T08:14:37;25.80;63.60
6556;DHT22;3311;48.32423000;14.29074500;2022-07-06T08:17:04;25.60;63.40
6556;DHT22;3311;48.32423000;14.29074500;2022-07-06T08:19:31;25.50;63.60
6556;DHT22;3311;48.32423000;14.29074500;2022-07-06T08:21:58;25.80;63.30
6556;DHT22;3311;48.32423000;14.29074500;2022-07-06T08:24:26;25.60;63.40
6556;DHT22;3311;48.32423000;14.29074500;2022-07-06T08:26:53;25.90;62.10
6556;DHT22;3311;48.32423000;14.29074500;2022-07-06T08:29:23;26.10;61.60
6556;DHT22;3311;48.32423000;14.29074500;2022-07-06T08:31:51;26.20;61.60
6556;DHT22;3311;48.32423000;14.29074500;2022-07-06T08:34:18;26.20;61.50
6556;DHT22;3311;48.32423000;14.29074500;2022-07-06T08:36:45;26.20;61.60
6556;DHT22;3311;48.32423000;14.29074500;2022-07-06T08:39:12;26.20;61.40
6556;DHT22;3311;48.32423000;14.29074500;2022-07-06T08:41:42;26.20;61.50
6556;DHT22;3311;48.32423000;14.29074500;2022-07-06T08:44:13;26.20;61.40
6556;DHT22;3311;48.32423000;14.29074500;2022-07-06T08:46:43;26.20;61.50
6556;DHT22;3311;48.32423000;14.29074500;2022-07-06T08:49:15;26.20;61.50
6556;DHT22;3311;48.32423000;14.29074500;2022-07-06T08:51:43;26.10;61.60
6556;DHT22;3311;48.32423000;14.29074500;2022-07-06T08:54:12;26.00;61.50
6556;DHT22;3311;48.32423000;14.29074500;2022-07-06T08:56:39;26.00;61.80
6556;DHT22;3311;48.32423000;14.29074500;2022-07-06T08:59:07;25.90;62.00
6556;DHT22;3311;48.32423000;14.29074500;2022-07-06T09:01:35;25.80;62.20
6556;DHT22;3311;48.32423000;14.29074500;2022-07-06T09:04:05;25.80;62.50
6556;DHT22;3311;48.32423000;14.29074500;2022-07-06T09:06:34;25.80;62.80
6556;DHT22;3311;48.32423000;14.29074500;2022-07-06T09:09:06;25.70;62.80
6556;DHT22;3311;48.32423000;14.29074500;2022-07-06T09:11:33;25.70;62.90
6556;DHT22;3311;48.32423000;14.29074500;2022-07-06T09:14:01;25.70;63.00
6556;DHT22;3311;48.32423000;14.29074500;2022-07-06T09:16:30;25.70;63.00
6556;DHT22;3311;48.32423000;14.29074500;2022-07-06T09:18:58;25.70;63.00
6556;DHT22;3311;48.32423000;14.29074500;2022-07-06T09:21:28;25.70;63.00
6556;DHT22;3311;48.32423000;14.29074500;2022-07-06T09:23:59;25.70;63.10
6556;DHT22;3311;48.32423000;14.29074500;2022-07-06T09:26:28;25.70;63.10
6556;DHT22;3311;48.32423000;14.29074500;2022-07-06T09:28:57;25.60;62.50
6556;DHT22;3311;48.32423000;14.29074500;2022-07-06T09:31:25;25.60;63.00
6556;DHT22;3311;48.32423000;14.29074500;2022-07-06T09:33:57;25.60;63.10
6556;DHT22;3311;48.32423000;14.29074500;2022-07-06T09:36:54;25.60;63.00
6556;DHT22;3311;48.32423000;14.29074500;2022-07-06T09:39:25;25.60;63.10
6556;DHT22;3311;48.32423000;14.29074500;2022-07-06T09:41:54;25.60;63.00
6556;DHT22;3311;48.32423000;14.29074500;2022-07-06T09:44:23;25.60;63.20
6556;DHT22;3311;48.32423000;14.29074500;2022-07-06T09:46:52;25.60;63.00
6556;DHT22;3311;48.32423000;14.29074500;2022-07-06T09:49:20;25.50;63.20
6556;DHT22;3311;48.32423000;14.29074500;2022-07-06T09:51:50;25.50;63.20
6556;DHT22;3311;48.32423000;14.29074500;2022-07-06T09:54:19;25.50;63.20
6556;DHT22;3311;48.32423000;14.29074500;2022-07-06T09:56:48;25.50;63.20
6556;DHT22;3311;48.32423000;14.29074500;2022-07-06T09:59:18;25.50;63.20
6556;DHT22;3311;48.32423000;14.29074500;2022-07-06T10:01:48;25.50;63.20
6556;DHT22;3311;48.32423000;14.29074500;2022-07-06T10:04:18;25.50;63.20
6556;DHT22;3311;48.32423000;14.29074500;2022-07-06T10:06:46;25.50;63.20
6556;DHT22;3311;48.32423000;14.29074500;2022-07-06T10:09:14;25.40;63.00
6556;DHT22;3311;48.32423000;14.29074500;2022-07-06T10:11:47;25.40;63.00
6556;DHT22;3311;48.32423000;14.29074500;2022-07-06T10:14:18;25.40;63.00
6556;DHT22;3311;48.32423000;14.29074500;2022-07-06T10:16:46;25.40;63.00
6556;DHT22;3311;48.32423000;14.29074500;2022-07-06T10:19:16;25.40;62.90
6556;DHT22;3311;48.32423000;14.29074500;2022-07-06T10:21:44;25.40;62.70
6556;DHT22;3311;48.32423000;14.29074500;2022-07-06T10:24:13;25.40;62.90
6556;DHT22;3311;48.32423000;14.29074500;2022-07-06T10:26:42;25.40;62.90
6556;DHT22;3311;48.32423000;14.29074500;2022-07-06T10:29:10;25.40;62.90
6556;DHT22;3311;48.32423000;14.29074500;2022-07-06T10:31:40;25.40;62.90
6556;DHT22;3311;48.32423000;14.29074500;2022-07-06T10:34:10;25.30;62.80
6556;DHT22;3311;48.32423000;14.29074500;2022-07-06T10:36:39;25.30;63.40
6556;DHT22;3311;48.32423000;14.29074500;2022-07-06T10:39:07;25.30;62.70
6556;DHT22;3311;48.32423000;14.29074500;2022-07-06T10:41:53;25.30;62.70
6556;DHT22;3311;48.32423000;14.29074500;2022-07-06T10:44:23;25.30;62.80
6556;DHT22;3311;48.32423000;14.29074500;2022-07-06T10:46:52;25.30;62.80
6556;DHT22;3311;48.32423000;14.29074500;2022-07-06T10:49:21;25.30;62.90
6556;DHT22;3311;48.32423000;14.29074500;2022-07-06T10:51:49;25.20;62.80
6556;DHT22;3311;48.32423000;14.29074500;2022-07-06T10:54:18;25.30;62.50
6556;DHT22;3311;48.32423000;14.29074500;2022-07-06T10:56:47;25.30;62.90
6556;DHT22;3311;48.32423000;14.29074500;2022-07-06T10:59:21;25.20;62.70
6556;DHT22;3311;48.32423000;14.29074500;2022-07-06T11:02:13;25.20;62.70
6556;DHT22;3311;48.32423000;14.29074500;2022-07-06T11:04:41;25.20;62.80
6556;DHT22;3311;48.32423000;14.29074500;2022-07-06T11:07:09;25.20;62.80
6556;DHT22;3311;48.32423000;14.29074500;2022-07-06T11:09:38;25.20;62.90
6556;DHT22;3311;48.32423000;14.29074500;2022-07-06T11:12:18;25.20;62.70
6556;DHT22;3311;48.32423000;14.29074500;2022-07-06T11:14:48;25.20;62.70
6556;DHT22;3311;48.32423000;14.29074500;2022-07-06T11:17:16;25.20;62.60
6556;DHT22;3311;48.32423000;14.29074500;2022-07-06T11:19:49;25.20;62.50
6556;DHT22;3311;48.32423000;14.29074500;2022-07-06T11:22:17;25.20;62.60
6556;DHT22;3311;48.32423000;14.29074500;2022-07-06T11:24:46;25.30;62.70
6556;DHT22;3311;48.32423000;14.29074500;2022-07-06T11:27:15;25.20;62.70
6556;DHT22;3311;48.32423000;14.29074500;2022-07-06T11:29:42;25.20;62.50
6556;DHT22;3311;48.32423000;14.29074500;2022-07-06T11:32:12;25.20;62.20
6556;DHT22;3311;48.32423000;14.29074500;2022-07-06T11:34:41;25.20;61.70
6556;DHT22;3311;48.32423000;14.29074500;2022-07-06T11:37:10;25.20;62.40
6556;DHT22;3311;48.32423000;14.29074500;2022-07-06T11:39:39;25.20;62.40
6556;DHT22;3311;48.32423000;14.29074500;2022-07-06T11:42:08;25.20;62.20
6556;DHT22;3311;48.32423000;14.29074500;2022-07-06T11:44:36;25.20;62.20
6556;DHT22;3311;48.32423000;14.29074500;2022-07-06T11:47:05;25.20;61.50
6556;DHT22;3311;48.32423000;14.29074500;2022-07-06T11:49:35;25.20;62.00
6556;DHT22;3311;48.32423000;14.29074500;2022-07-06T11:52:06;25.30;62.10
6556;DHT22;3311;48.32423000;14.29074500;2022-07-06T11:54:33;25.30;62.10
6556;DHT22;3311;48.32423000;14.29074500;2022-07-06T11:57:02;25.30;61.90
6556;DHT22;3311;48.32423000;14.29074500;2022-07-06T11:59:32;25.30;61.80
6556;DHT22;3311;48.32423000;14.29074500;2022-07-06T12:02:00;25.30;61.80
6556;DHT22;3311;48.32423000;14.29074500;2022-07-06T12:04:28;25.20;61.60
6556;DHT22;3311;48.32423000;14.29074500;2022-07-06T12:07:00;25.20;61.60
6556;DHT22;3311;48.32423000;14.29074500;2022-07-06T12:09:30;25.20;61.50
6556;DHT22;3311;48.32423000;14.29074500;2022-07-06T12:11:58;25.20;61.40
6556;DHT22;3311;48.32423000;14.29074500;2022-07-06T12:14:29;25.20;61.50
6556;DHT22;3311;48.32423000;14.29074500;2022-07-06T12:16:56;25.20;61.60
6556;DHT22;3311;48.32423000;14.29074500;2022-07-06T12:19:29;25.30;61.60
6556;DHT22;3311;48.32423000;14.29074500;2022-07-06T12:21:57;25.30;61.50
6556;DHT22;3311;48.32423000;14.29074500;2022-07-06T12:24:29;25.30;61.40
6556;DHT22;3311;48.32423000;14.29074500;2022-07-06T12:27:05;25.30;61.70
6556;DHT22;3311;48.32423000;14.29074500;2022-07-06T12:29:36;25.30;61.50
6556;DHT22;3311;48.32423000;14.29074500;2022-07-06T12:32:04;25.20;61.30
6556;DHT22;3311;48.32423000;14.29074500;2022-07-06T12:34:32;25.30;61.30
6556;DHT22;3311;48.32423000;14.29074500;2022-07-06T12:37:08;25.20;61.20
6556;DHT22;3311;48.32423000;14.29074500;2022-07-06T12:39:43;25.30;61.30
6556;DHT22;3311;48.32423000;14.29074500;2022-07-06T12:42:12;25.20;61.20
6556;DHT22;3311;48.32423000;14.29074500;2022-07-06T12:44:43;25.20;60.90
6556;DHT22;3311;48.32423000;14.29074500;2022-07-06T12:47:11;25.30;61.00
6556;DHT22;3311;48.32423000;14.29074500;2022-07-06T12:49:39;25.30;61.00
6556;DHT22;3311;48.32423000;14.29074500;2022-07-06T12:52:13;25.30;61.00
6556;DHT22;3311;48.32423000;14.29074500;2022-07-06T12:54:42;25.30;60.90
6556;DHT22;3311;48.32423000;14.29074500;2022-07-06T12:57:11;25.20;60.80
6556;DHT22;3311;48.32423000;14.29074500;2022-07-06T12:59:41;25.30;60.90
6556;DHT22;3311;48.32423000;14.29074500;2022-07-06T13:02:16;25.20;60.00
6556;DHT22;3311;48.32423000;14.29074500;2022-07-06T13:04:55;25.20;60.50
6556;DHT22;3311;48.32423000;14.29074500;2022-07-06T13:07:25;25.20;60.30
6556;DHT22;3311;48.32423000;14.29074500;2022-07-06T13:09:53;25.30;60.60
6556;DHT22;3311;48.32423000;14.29074500;2022-07-06T13:12:21;25.30;60.30
6556;DHT22;3311;48.32423000;14.29074500;2022-07-06T13:14:49;25.30;60.20
6556;DHT22;3311;48.32423000;14.29074500;2022-07-06T13:17:17;25.30;60.20
6556;DHT22;3311;48.32423000;14.29074500;2022-07-06T13:19:44;25.30;59.50
6556;DHT22;3311;48.32423000;14.29074500;2022-07-06T13:22:11;25.30;59.90
6556;DHT22;3311;48.32423000;14.29074500;2022-07-06T13:24:40;25.30;59.80
6556;DHT22;3311;48.32423000;14.29074500;2022-07-06T13:27:08;25.20;59.80
6556;DHT22;3311;48.32423000;14.29074500;2022-07-06T13:29:36;25.20;59.70
6556;DHT22;3311;48.32423000;14.29074500;2022-07-06T13:32:04;25.20;60.00
6556;DHT22;3311;48.32423000;14.29074500;2022-07-06T13:34:32;25.20;60.10
6556;DHT22;3311;48.32423000;14.29074500;2022-07-06T13:37:01;25.20;60.20
6556;DHT22;3311;48.32423000;14.29074500;2022-07-06T13:39:28;25.20;60.20
6556;DHT22;3311;48.32423000;14.29074500;2022-07-06T13:41:57;25.20;60.20
6556;DHT22;3311;48.32423000;14.29074500;2022-07-06T13:44:24;25.20;60.20
6556;DHT22;3311;48.32423000;14.29074500;2022-07-06T13:46:52;25.20;60.20
6556;DHT22;3311;48.32423000;14.29074500;2022-07-06T13:49:20;25.20;60.20
6556;DHT22;3311;48.32423000;14.29074500;2022-07-06T13:51:47;25.20;60.20
6556;DHT22;3311;48.32423000;14.29074500;2022-07-06T13:54:15;25.20;60.20
6556;DHT22;3311;48.32423000;14.29074500;2022-07-06T13:56:42;25.20;60.10
6556;DHT22;3311;48.32423000;14.29074500;2022-07-06T13:59:11;25.20;60.10
6556;DHT22;3311;48.32423000;14.29074500;2022-07-06T14:01:38;25.20;60.00
6556;DHT22;3311;48.32423000;14.29074500;2022-07-06T14:04:05;25.20;60.20
6556;DHT22;3311;48.32423000;14.29074500;2022-07-06T14:06:33;25.20;60.10
6556;DHT22;3311;48.32423000;14.29074500;2022-07-06T14:09:01;25.20;60.20
6556;DHT22;3311;48.32423000;14.29074500;2022-07-06T14:11:28;25.20;60.30
6556;DHT22;3311;48.32423000;14.29074500;2022-07-06T14:13:55;25.20;60.20
6556;DHT22;3311;48.32423000;14.29074500;2022-07-06T14:16:24;25.20;60.20
6556;DHT22;3311;48.32423000;14.29074500;2022-07-06T14:18:51;25.20;60.20
6556;DHT22;3311;48.32423000;14.29074500;2022-07-06T14:21:19;25.20;60.20
6556;DHT22;3311;48.32423000;14.29074500;2022-07-06T14:23:46;25.20;60.20
6556;DHT22;3311;48.32423000;14.29074500;2022-07-06T14:26:14;25.20;60.20
6556;DHT22;3311;48.32423000;14.29074500;2022-07-06T14:28:41;25.20;60.30
6556;DHT22;3311;48.32423000;14.29074500;2022-07-06T14:31:08;25.20;59.70
6556;DHT22;3311;48.32423000;14.29074500;2022-07-06T14:33:37;25.20;60.10
6556;DHT22;3311;48.32423000;14.29074500;2022-07-06T14:36:05;25.20;60.00
6556;DHT22;3311;48.32423000;14.29074500;2022-07-06T14:38:32;25.20;60.00
6556;DHT22;3311;48.32423000;14.29074500;2022-07-06T14:41:00;25.20;60.00
6556;DHT22;3311;48.32423000;14.29074500;2022-07-06T14:43:27;25.20;60.10
6556;DHT22;3311;48.32423000;14.29074500;2022-07-06T14:45:54;25.20;60.10
6556;DHT22;3311;48.32423000;14.29074500;2022-07-06T14:48:21;25.20;60.10
6556;DHT22;3311;48.32423000;14.29074500;2022-07-06T14:50:50;25.20;60.10
6556;DHT22;3311;48.32423000;14.29074500;2022-07-06T14:53:18;25.20;60.10
6556;DHT22;3311;48.32423000;14.29074500;2022-07-06T14:55:47;25.20;60.00
6556;DHT22;3311;48.32423000;14.29074500;2022-07-06T14:58:15;25.20;59.90
6556;DHT22;3311;48.32423000;14.29074500;2022-07-06T15:00:44;25.20;59.70
6556;DHT22;3311;48.32423000;14.29074500;2022-07-06T15:03:12;25.20;60.00
6556;DHT22;3311;48.32423000;14.29074500;2022-07-06T15:05:39;25.20;60.00
6556;DHT22;3311;48.32423000;14.29074500;2022-07-06T15:08:10;25.20;60.00
6556;DHT22;3311;48.32423000;14.29074500;2022-07-06T15:10:37;25.20;60.00
6556;DHT22;3311;48.32423000;14.29074500;2022-07-06T15:13:04;25.20;59.90
6556;DHT22;3311;48.32423000;14.29074500;2022-07-06T15:15:32;25.20;59.90
6556;DHT22;3311;48.32423000;14.29074500;2022-07-06T15:17:59;25.20;59.50
6556;DHT22;3311;48.32423000;14.29074500;2022-07-06T15:20:26;25.20;59.80
6556;DHT22;3311;48.32423000;14.29074500;2022-07-06T15:22:53;25.20;59.80
6556;DHT22;3311;48.32423000;14.29074500;2022-07-06T15:25:22;25.20;59.90
6556;DHT22;3311;48.32423000;14.29074500;2022-07-06T15:27:50;25.20;59.90
6556;DHT22;3311;48.32423000;14.29074500;2022-07-06T15:30:18;25.20;58.50
6556;DHT22;3311;48.32423000;14.29074500;2022-07-06T15:32:45;25.10;58.20
6556;DHT22;3311;48.32423000;14.29074500;2022-07-06T15:35:12;25.10;58.80
6556;DHT22;3311;48.32423000;14.29074500;2022-07-06T15:37:39;25.20;59.20
6556;DHT22;3311;48.32423000;14.29074500;2022-07-06T15:40:08;25.20;59.30
6556;DHT22;3311;48.32423000;14.29074500;2022-07-06T15:42:40;25.20;59.40
6556;DHT22;3311;48.32423000;14.29074500;2022-07-06T15:45:09;25.10;59.40
6556;DHT22;3311;48.32423000;14.29074500;2022-07-06T15:47:36;25.10;59.30
6556;DHT22;3311;48.32423000;14.29074500;2022-07-06T15:50:05;25.10;59.30
6556;DHT22;3311;48.32423000;14.29074500;2022-07-06T15:52:32;25.10;58.90
6556;DHT22;3311;48.32423000;14.29074500;2022-07-06T15:54:59;25.10;58.60
6556;DHT22;3311;48.32423000;14.29074500;2022-07-06T15:57:27;25.10;59.00
6556;DHT22;3311;48.32423000;14.29074500;2022-07-06T15:59:55;25.10;57.60
6556;DHT22;3311;48.32423000;14.29074500;2022-07-06T16:02:22;25.10;57.60
6556;DHT22;3311;48.32423000;14.29074500;2022-07-06T16:04:50;25.10;57.70
6556;DHT22;3311;48.32423000;14.29074500;2022-07-06T16:07:17;25.10;57.30
6556;DHT22;3311;48.32423000;14.29074500;2022-07-06T16:09:46;25.10;57.50
6556;DHT22;3311;48.32423000;14.29074500;2022-07-06T16:12:13;25.10;56.80
6556;DHT22;3311;48.32423000;14.29074500;2022-07-06T16:14:41;25.10;57.50
6556;DHT22;3311;48.32423000;14.29074500;2022-07-06T16:17:09;25.10;55.80
6556;DHT22;3311;48.32423000;14.29074500;2022-07-06T16:19:36;25.10;55.50
6556;DHT22;3311;48.32423000;14.29074500;2022-07-06T16:22:04;25.10;55.80
6556;DHT22;3311;48.32423000;14.29074500;2022-07-06T16:24:31;25.10;55.20
6556;DHT22;3311;48.32423000;14.29074500;2022-07-06T16:26:58;25.10;54.70
6556;DHT22;3311;48.32423000;14.29074500;2022-07-06T16:29:25;25.10;55.30
6556;DHT22;3311;48.32423000;14.29074500;2022-07-06T16:31:52;25.10;55.80
6556;DHT22;3311;48.32423000;14.29074500;2022-07-06T16:34:21;25.10;55.30
6556;DHT22;3311;48.32423000;14.29074500;2022-07-06T16:36:48;23.50;53.70
6556;DHT22;3311;48.32423000;14.29074500;2022-07-06T16:39:15;25.10;55.10
6556;DHT22;3311;48.32423000;14.29074500;2022-07-06T16:41:43;25.00;54.60
6556;DHT22;3311;48.32423000;14.29074500;2022-07-06T16:44:10;25.10;54.60
6556;DHT22;3311;48.32423000;14.29074500;2022-07-06T16:46:37;25.10;55.50
6556;DHT22;3311;48.32423000;14.29074500;2022-07-06T16:49:04;25.10;55.00
6556;DHT22;3311;48.32423000;14.29074500;2022-07-06T16:51:33;25.10;54.60
6556;DHT22;3311;48.32423000;14.29074500;2022-07-06T16:54:00;25.00;54.40
6556;DHT22;3311;48.32423000;14.29074500;2022-07-06T16:56:27;25.00;54.70
6556;DHT22;3311;48.32423000;14.29074500;2022-07-06T16:58:54;25.00;54.30
6556;DHT22;3311;48.32423000;14.29074500;2022-07-06T17:01:21;25.00;54.50
6556;DHT22;3311;48.32423000;14.29074500;2022-07-06T17:03:49;25.00;54.60
6556;DHT22;3311;48.32423000;14.29074500;2022-07-06T17:06:16;25.00;54.70
6556;DHT22;3311;48.32423000;14.29074500;2022-07-06T17:08:44;25.00;55.90
6556;DHT22;3311;48.32423000;14.29074500;2022-07-06T17:11:12;25.00;55.10
6556;DHT22;3311;48.32423000;14.29074500;2022-07-06T17:13:39;25.00;55.90
6556;DHT22;3311;48.32423000;14.29074500;2022-07-06T17:16:06;25.00;56.10
6556;DHT22;3311;48.32423000;14.29074500;2022-07-06T17:18:33;25.00;55.60
6556;DHT22;3311;48.32423000;14.29074500;2022-07-06T17:21:01;25.00;55.00
6556;DHT22;3311;48.32423000;14.29074500;2022-07-06T17:23:28;25.00;55.20
6556;DHT22;3311;48.32423000;14.29074500;2022-07-06T17:25:57;25.00;55.60
6556;DHT22;3311;48.32423000;14.29074500;2022-07-06T17:28:24;25.00;56.50
6556;DHT22;3311;48.32423000;14.29074500;2022-07-06T17:30:52;25.00;55.10
6556;DHT22;3311;48.32423000;14.29074500;2022-07-06T17:33:22;24.90;54.80
6556;DHT22;3311;48.32423000;14.29074500;2022-07-06T17:35:49;24.90;54.90
6556;DHT22;3311;48.32423000;14.29074500;2022-07-06T17:38:17;24.90;54.40
6556;DHT22;3311;48.32423000;14.29074500;2022-07-06T17:40:44;24.90;54.60
6556;DHT22;3311;48.32423000;14.29074500;2022-07-06T17:43:13;24.90;54.60
6556;DHT22;3311;48.32423000;14.29074500;2022-07-06T17:45:40;24.90;54.60
6556;DHT22;3311;48.32423000;14.29074500;2022-07-06T17:48:07;24.90;54.90
6556;DHT22;3311;48.32423000;14.29074500;2022-07-06T17:50:35;24.80;55.20
6556;DHT22;3311;48.32423000;14.29074500;2022-07-06T17:53:02;24.80;55.30
6556;DHT22;3311;48.32423000;14.29074500;2022-07-06T17:55:30;24.80;55.30
6556;DHT22;3311;48.32423000;14.29074500;2022-07-06T17:57:57;24.80;55.60
6556;DHT22;3311;48.32423000;14.29074500;2022-07-06T18:00:31;24.80;55.60
6556;DHT22;3311;48.32423000;14.29074500;2022-07-06T18:02:59;24.80;55.50
6556;DHT22;3311;48.32423000;14.29074500;2022-07-06T18:05:27;24.80;55.50
6556;DHT22;3311;48.32423000;14.29074500;2022-07-06T18:07:56;24.80;55.30
6556;DHT22;3311;48.32423000;14.29074500;2022-07-06T18:10:24;24.80;55.70
6556;DHT22;3311;48.32423000;14.29074500;2022-07-06T18:12:51;24.80;55.80
6556;DHT22;3311;48.32423000;14.29074500;2022-07-06T18:15:19;24.90;56.50
6556;DHT22;3311;48.32423000;14.29074500;2022-07-06T18:17:49;24.90;56.90
6556;DHT22;3311;48.32423000;14.29074500;2022-07-06T18:20:16;24.90;57.00
6556;DHT22;3311;48.32423000;14.29074500;2022-07-06T18:22:44;24.90;57.10
6556;DHT22;3311;48.32423000;14.29074500;2022-07-06T18:25:12;24.90;57.40
6556;DHT22;3311;48.32423000;14.29074500;2022-07-06T18:27:39;24.80;57.50
6556;DHT22;3311;48.32423000;14.29074500;2022-07-06T18:30:08;24.80;57.90
6556;DHT22;3311;48.32423000;14.29074500;2022-07-06T18:32:35;24.80;58.10
6556;DHT22;3311;48.32423000;14.29074500;2022-07-06T18:35:05;24.80;58.20
6556;DHT22;3311;48.32423000;14.29074500;2022-07-06T18:37:33;24.80;58.30
6556;DHT22;3311;48.32423000;14.29074500;2022-07-06T18:40:00;24.80;58.40
6556;DHT22;3311;48.32423000;14.29074500;2022-07-06T18:42:29;24.80;58.40
6556;DHT22;3311;48.32423000;14.29074500;2022-07-06T18:44:57;24.80;58.50
6556;DHT22;3311;48.32423000;14.29074500;2022-07-06T18:47:25;24.70;58.00
6556;DHT22;3311;48.32423000;14.29074500;2022-07-06T18:50:03;24.70;58.70
6556;DHT22;3311;48.32423000;14.29074500;2022-07-06T18:52:33;24.70;58.70
6556;DHT22;3311;48.32423000;14.29074500;2022-07-06T18:55:06;24.70;58.70
6556;DHT22;3311;48.32423000;14.29074500;2022-07-06T18:57:35;24.70;58.10
6556;DHT22;3311;48.32423000;14.29074500;2022-07-06T19:00:07;24.70;58.00
6556;DHT22;3311;48.32423000;14.29074500;2022-07-06T19:02:35;24.70;57.90
6556;DHT22;3311;48.32423000;14.29074500;2022-07-06T19:05:04;24.70;57.80
6556;DHT22;3311;48.32423000;14.29074500;2022-07-06T19:07:39;24.60;58.00
6556;DHT22;3311;48.32423000;14.29074500;2022-07-06T19:10:10;24.60;57.90
6556;DHT22;3311;48.32423000;14.29074500;2022-07-06T19:12:42;24.60;58.00
6556;DHT22;3311;48.32423000;14.29074500;2022-07-06T19:15:10;24.60;58.10
6556;DHT22;3311;48.32423000;14.29074500;2022-07-06T19:17:38;24.60;58.10
6556;DHT22;3311;48.32423000;14.29074500;2022-07-06T19:20:09;24.60;58.10